createdAt,value
2019-05-18T00:00:39.817Z,13.40
2019-05-18T00:03:24.294Z,13.40
2019-05-18T00:06:08.714Z,13.30
2019-05-18T00:08:52.996Z,13.30
2019-05-18T00:11:36.854Z,13.30
2019-05-18T00:14:20.681Z,13.40
2019-05-18T00:17:07.902Z,13.30
2019-05-18T00:19:52.907Z,13.30
2019-05-18T00:22:37.358Z,13.30
2019-05-18T00:25:22.009Z,13.30
2019-05-18T00:28:06.284Z,13.30
2019-05-18T00:36:45.760Z,13.50
2019-05-18T00:39:29.505Z,13.40
2019-05-18T00:42:13.397Z,13.30
2019-05-18T00:44:57.901Z,13.30
2019-05-18T00:47:42.512Z,13.30
2019-05-18T00:53:28.804Z,13.20
2019-05-18T00:56:13.055Z,13.20
2019-05-18T00:58:58.907Z,13.20
2019-05-18T01:01:42.956Z,13.10
2019-05-18T01:04:29.394Z,13.00
2019-05-18T01:07:13.641Z,13.00
2019-05-18T01:09:59.770Z,13.00
2019-05-18T01:12:43.690Z,13.00
2019-05-18T01:15:27.890Z,13.00
2019-05-18T01:18:12.161Z,12.90
2019-05-18T01:20:56.828Z,12.90
2019-05-18T01:23:41.081Z,12.90
2019-05-18T01:26:24.738Z,12.90
2019-05-18T01:29:08.503Z,12.90
2019-05-18T01:31:54.331Z,12.90
2019-05-18T01:34:38.452Z,12.80
2019-05-18T01:37:24.526Z,12.80
2019-05-18T01:43:09.755Z,12.80
2019-05-18T01:45:54.458Z,12.80
2019-05-18T01:48:39.017Z,12.70
2019-05-18T01:51:25.297Z,12.70
2019-05-18T01:56:54.397Z,12.80
2019-05-18T01:59:38.483Z,12.70
2019-05-18T02:02:22.154Z,12.70
2019-05-18T02:05:06.284Z,12.70
2019-05-18T02:07:51.783Z,12.60
2019-05-18T02:10:36.359Z,12.70
2019-05-18T02:13:20.578Z,12.60
2019-05-18T02:16:04.254Z,12.60
2019-05-18T02:18:48.768Z,12.50
2019-05-18T02:21:33.255Z,12.50
2019-05-18T02:24:17.013Z,12.50
2019-05-18T02:27:01.146Z,12.50
2019-05-18T02:29:44.965Z,12.50
2019-05-18T02:32:29.553Z,12.50
2019-05-18T02:35:13.310Z,12.50
2019-05-18T02:38:14.348Z,12.50
2019-05-18T02:40:58.079Z,12.50
2019-05-18T02:43:42.649Z,12.40
2019-05-18T02:46:26.448Z,12.30
2019-05-18T02:49:10.660Z,12.30
2019-05-18T02:51:55.955Z,12.30
2019-05-18T02:54:40.328Z,12.30
2019-05-18T02:57:24.304Z,12.20
2019-05-18T03:00:09.095Z,12.20
2019-05-18T03:02:54.418Z,12.10
2019-05-18T03:05:38.679Z,12.10
2019-05-18T03:08:22.468Z,12.10
2019-05-18T03:11:07.013Z,12.10
2019-05-18T03:13:50.725Z,12.10
2019-05-18T03:16:34.968Z,12.10
2019-05-18T03:19:19.191Z,12.10
2019-05-18T03:22:03.212Z,12.10
2019-05-18T03:24:47.014Z,12.10
2019-05-18T03:27:33.107Z,12.10
2019-05-18T03:30:17.379Z,12.00
2019-05-18T03:33:01.410Z,11.90
2019-05-18T03:35:45.789Z,12.00
2019-05-18T03:38:30.720Z,12.00
2019-05-18T03:41:14.735Z,11.90
2019-05-18T03:43:59.069Z,12.00
2019-05-18T03:46:43.540Z,12.00
2019-05-18T03:49:28.036Z,12.00
2019-05-18T03:52:12.423Z,12.00
2019-05-18T03:54:56.989Z,11.90
2019-05-18T03:57:41.173Z,12.00
2019-05-18T04:00:24.824Z,12.00
2019-05-18T04:03:08.340Z,12.00
2019-05-18T04:05:51.942Z,12.00
2019-05-18T04:08:36.378Z,12.00
2019-05-18T04:11:20.521Z,12.00
2019-05-18T04:14:08.304Z,12.00
2019-05-18T04:16:52.179Z,12.10
2019-05-18T04:19:46.524Z,12.10
2019-05-18T04:22:22.247Z,12.20
2019-05-18T04:24:54.861Z,12.20
2019-05-18T04:27:38.465Z,12.10
2019-05-18T04:30:23.107Z,12.10
2019-05-18T04:33:06.927Z,12.20
2019-05-18T04:35:50.709Z,12.20
2019-05-18T04:38:35.196Z,12.20
2019-05-18T04:41:18.807Z,12.30
2019-05-18T04:44:02.684Z,12.40
2019-05-18T04:46:48.183Z,12.50
2019-05-18T04:49:32.338Z,12.60
2019-05-18T04:52:16.013Z,12.70
2019-05-18T04:55:00.188Z,12.80
2019-05-18T05:00:28.292Z,12.80
2019-05-18T05:03:12.920Z,12.80
2019-05-18T05:05:56.714Z,13.00
2019-05-18T05:08:40.616Z,13.30
2019-05-18T05:11:24.222Z,13.40
2019-05-18T05:14:07.976Z,13.60
2019-05-18T05:16:52.673Z,13.80
2019-05-18T05:19:38.621Z,13.90
2019-05-18T05:22:22.682Z,14.10
2019-05-18T05:25:07.973Z,14.20
2019-05-18T05:27:51.872Z,14.30
2019-05-18T05:30:37.421Z,14.40
2019-05-18T05:33:21.866Z,14.40
2019-05-18T05:36:08.104Z,14.50
2019-05-18T05:38:52.004Z,14.50
2019-05-18T05:41:36.125Z,14.60
2019-05-18T05:44:26.421Z,14.80
2019-05-18T05:47:10.037Z,14.90
2019-05-18T05:49:54.536Z,15.00
2019-05-18T05:52:38.483Z,15.30
2019-05-18T05:55:22.056Z,15.40
2019-05-18T05:58:05.696Z,15.60
2019-05-18T06:00:49.945Z,15.60
2019-05-18T06:03:33.437Z,15.70
2019-05-18T06:06:18.181Z,15.90
2019-05-18T06:09:05.836Z,16.10
2019-05-18T06:11:49.894Z,16.20
2019-05-18T06:14:34.297Z,16.30
2019-05-18T06:17:18.653Z,16.40
2019-05-18T06:20:04.233Z,16.50
2019-05-18T06:22:49.457Z,16.50
2019-05-18T06:25:34.488Z,16.50
2019-05-18T06:28:18.870Z,16.70
2019-05-18T06:31:02.811Z,16.90
2019-05-18T06:33:47.683Z,16.80
2019-05-18T06:36:32.049Z,17.00
2019-05-18T06:39:17.362Z,17.10
2019-05-18T06:42:01.463Z,17.20
2019-05-18T06:47:30.356Z,17.40
2019-05-18T06:50:14.561Z,17.70
2019-05-18T06:53:04.392Z,17.90
2019-05-18T06:55:49.064Z,17.90
2019-05-18T06:58:35.132Z,18.00
2019-05-18T07:01:19.513Z,18.30
2019-05-18T07:04:05.884Z,18.50
2019-05-18T07:06:49.819Z,18.80
2019-05-18T07:09:40.191Z,19.10
2019-05-18T07:12:24.087Z,19.40
2019-05-18T07:15:08.234Z,19.50
2019-05-18T07:17:52.636Z,19.80
2019-05-18T07:20:36.425Z,20.00
2019-05-18T07:23:21.197Z,20.30
2019-05-18T07:26:05.880Z,20.30
2019-05-18T07:28:50.479Z,20.30
2019-05-18T07:31:34.017Z,20.10
2019-05-18T07:34:18.135Z,20.10
2019-05-18T07:37:02.249Z,20.20
2019-05-18T07:39:46.346Z,19.90
2019-05-18T07:42:30.505Z,20.20
2019-05-18T07:45:16.293Z,20.30
2019-05-18T07:48:00.211Z,20.70
2019-05-18T07:50:44.214Z,21.10
2019-05-18T07:53:28.744Z,21.30
2019-05-18T07:56:12.456Z,21.30
2019-05-18T07:58:56.061Z,21.60
2019-05-18T08:01:41.478Z,21.80
2019-05-18T08:04:25.022Z,22.00
2019-05-18T08:07:09.082Z,22.00
2019-05-18T08:09:54.804Z,21.90
2019-05-18T08:12:38.998Z,21.80
2019-05-18T08:15:23.677Z,21.70
2019-05-18T08:18:08.336Z,22.10
2019-05-18T08:20:52.251Z,22.50
2019-05-18T08:23:36.326Z,22.80
2019-05-18T08:26:20.223Z,23.10
2019-05-18T08:29:04.811Z,23.30
2019-05-18T08:31:48.413Z,23.60
2019-05-18T08:34:32.787Z,23.30
2019-05-18T08:37:17.179Z,23.30
2019-05-18T08:40:00.743Z,23.70
2019-05-18T08:42:44.935Z,24.00
2019-05-18T08:45:28.600Z,23.90
2019-05-18T08:48:12.387Z,23.80
2019-05-18T08:50:57.182Z,23.70
2019-05-18T08:53:40.835Z,23.70
2019-05-18T08:56:24.867Z,23.80
2019-05-18T08:59:08.520Z,23.40
2019-05-18T09:01:52.435Z,23.20
2019-05-18T09:04:37.767Z,23.00
2019-05-18T09:07:22.404Z,23.30
2019-05-18T09:10:07.131Z,23.70
2019-05-18T09:12:39.553Z,23.50
2019-05-18T09:15:25.481Z,23.20
2019-05-18T09:18:09.996Z,23.30
2019-05-18T09:20:54.114Z,23.40
2019-05-18T09:23:37.859Z,23.20
2019-05-18T09:26:23.397Z,23.80
2019-05-18T09:31:51.991Z,23.80
2019-05-18T09:34:35.789Z,24.10
2019-05-18T09:37:20.426Z,24.20
2019-05-18T09:40:06.050Z,24.60
2019-05-18T09:42:49.888Z,24.40
2019-05-18T09:45:33.809Z,24.10
2019-05-18T09:48:18.095Z,23.30
2019-05-18T09:51:02.927Z,23.00
2019-05-18T09:53:35.290Z,23.10
2019-05-18T09:56:21.105Z,23.30
2019-05-18T09:59:04.984Z,23.40
2019-05-18T10:01:49.083Z,24.10
2019-05-18T10:04:33.219Z,24.40
2019-05-18T10:07:18.247Z,24.60
2019-05-18T10:10:03.603Z,24.80
2019-05-18T10:12:47.279Z,25.00
2019-05-18T10:15:31.728Z,25.20
2019-05-18T10:18:15.766Z,24.80
2019-05-18T10:20:59.923Z,25.00
2019-05-18T10:23:43.653Z,24.60
2019-05-18T10:26:28.002Z,24.90
2019-05-18T10:29:12.246Z,24.90
2019-05-18T10:31:56.999Z,24.80
2019-05-18T10:34:45.004Z,24.70
2019-05-18T10:37:29.505Z,24.20
2019-05-18T10:40:14.132Z,24.10
2019-05-18T10:46:08.860Z,24.80
2019-05-18T10:48:53.218Z,25.10
2019-05-18T10:51:38.531Z,25.00
2019-05-18T10:54:23.727Z,24.40
2019-05-18T10:57:07.532Z,24.40
2019-05-18T10:59:54.062Z,24.60
2019-05-18T11:02:26.641Z,24.80
2019-05-18T11:05:10.779Z,25.20
2019-05-18T11:07:54.509Z,25.30
2019-05-18T11:10:39.174Z,25.70
2019-05-18T11:13:23.591Z,25.80
2019-05-18T11:16:09.339Z,25.40
2019-05-18T11:18:53.324Z,24.80
2019-05-18T11:21:36.995Z,24.30
2019-05-18T11:24:21.059Z,24.20
2019-05-18T11:27:07.088Z,24.60
2019-05-18T11:29:51.162Z,24.20
2019-05-18T11:35:21.014Z,24.00
2019-05-18T11:37:54.459Z,24.10
2019-05-18T11:40:39.777Z,24.50
2019-05-18T11:43:23.729Z,24.90
2019-05-18T11:46:08.168Z,25.40
2019-05-18T11:48:55.560Z,25.90
2019-05-18T11:51:39.279Z,25.90
2019-05-18T11:54:23.391Z,25.80
2019-05-18T11:57:08.020Z,25.80
2019-05-18T11:59:52.032Z,25.40
2019-05-18T12:02:37.089Z,25.10
2019-05-18T12:05:20.904Z,25.00
2019-05-18T12:08:05.315Z,24.90
2019-05-18T12:10:56.091Z,24.90
2019-05-18T12:13:51.355Z,24.90
2019-05-18T12:16:39.593Z,24.80
2019-05-18T12:19:24.058Z,24.90
2019-05-18T12:22:08.432Z,24.90
2019-05-18T12:24:57.166Z,25.10
2019-05-18T12:27:41.356Z,25.50
2019-05-18T12:30:26.211Z,25.40
2019-05-18T12:33:10.584Z,24.90
2019-05-18T12:35:56.161Z,24.70
2019-05-18T12:38:40.551Z,24.80
2019-05-18T12:41:31.635Z,24.80
2019-05-18T12:44:15.486Z,25.00
2019-05-18T12:47:01.606Z,25.20
2019-05-18T12:49:45.799Z,24.90
2019-05-18T12:52:29.693Z,24.60
2019-05-18T12:55:14.218Z,24.30
2019-05-18T12:57:58.785Z,24.60
2019-05-18T13:00:43.477Z,24.60
2019-05-18T13:03:27.497Z,24.20
2019-05-18T13:06:11.777Z,24.30
2019-05-18T13:08:57.707Z,23.80
2019-05-18T13:11:41.800Z,23.70
2019-05-18T13:14:25.605Z,23.60
2019-05-18T13:17:09.706Z,23.80
2019-05-18T13:19:53.223Z,24.10
2019-05-18T13:22:37.563Z,24.10
2019-05-18T13:25:21.928Z,24.20
2019-05-18T13:28:06.180Z,24.20
2019-05-18T13:30:50.379Z,24.00
2019-05-18T13:33:34.195Z,23.50
2019-05-18T13:36:18.709Z,23.30
2019-05-18T13:39:02.651Z,23.20
2019-05-18T13:41:46.688Z,23.00
2019-05-18T13:44:30.263Z,23.10
2019-05-18T13:47:14.086Z,23.20
2019-05-18T13:49:58.418Z,23.30
2019-05-18T13:52:43.178Z,23.30
2019-05-18T13:55:29.019Z,23.20
2019-05-18T13:58:12.805Z,23.30
2019-05-18T14:00:57.354Z,23.20
2019-05-18T14:03:41.192Z,23.30
2019-05-18T14:06:26.348Z,23.30
2019-05-18T14:08:58.887Z,23.50
2019-05-18T14:11:43.731Z,23.40
2019-05-18T14:14:29.657Z,23.40
2019-05-18T14:17:02.180Z,23.40
2019-05-18T14:19:50.033Z,23.70
2019-05-18T14:22:34.329Z,23.60
2019-05-18T14:25:19.740Z,23.40
2019-05-18T14:28:03.696Z,23.20
2019-05-18T14:30:47.704Z,23.00
2019-05-18T14:33:31.650Z,23.00
2019-05-18T14:36:16.573Z,23.00
2019-05-18T14:39:00.802Z,22.80
2019-05-18T14:44:47.039Z,23.10
2019-05-18T14:47:31.157Z,23.10
2019-05-18T14:50:15.548Z,23.10
2019-05-18T14:52:59.272Z,22.90
2019-05-18T14:55:42.862Z,22.80
2019-05-18T14:58:27.144Z,22.70
2019-05-18T15:01:10.842Z,22.70
2019-05-18T15:03:56.416Z,22.60
2019-05-18T15:06:30.727Z,22.40
2019-05-18T15:09:04.336Z,22.40
2019-05-18T15:11:36.797Z,22.40
2019-05-18T15:14:20.559Z,22.60
2019-05-18T15:16:53.181Z,22.70
2019-05-18T15:19:25.630Z,22.70
2019-05-18T15:21:57.902Z,22.70
2019-05-18T15:24:30.622Z,22.70
2019-05-18T15:27:03.893Z,22.80
2019-05-18T15:29:36.208Z,22.80
2019-05-18T15:32:08.782Z,22.70
2019-05-18T15:34:41.118Z,22.70
2019-05-18T15:37:24.812Z,22.70
2019-05-18T15:39:57.151Z,22.80
2019-05-18T15:42:41.409Z,22.70
2019-05-18T15:45:14.132Z,22.60
2019-05-18T15:47:46.813Z,22.60
2019-05-18T15:50:32.325Z,22.60
2019-05-18T15:53:16.246Z,22.70
2019-05-18T15:56:05.952Z,22.70
2019-05-18T15:58:47.497Z,22.70
2019-05-18T16:01:32.028Z,22.60
2019-05-18T16:04:16.940Z,22.60
2019-05-18T16:07:00.813Z,22.70
2019-05-18T16:09:45.152Z,22.70
2019-05-18T16:12:29.338Z,22.70
2019-05-18T16:15:02.594Z,22.70
2019-05-18T16:17:54.551Z,22.80
2019-05-18T16:20:38.755Z,22.60
2019-05-18T16:23:22.780Z,22.50
2019-05-18T16:26:20.657Z,22.50
2019-05-18T16:28:53.672Z,22.50
2019-05-18T16:31:37.532Z,22.60
2019-05-18T16:34:22.905Z,22.50
2019-05-18T16:37:06.846Z,22.40
2019-05-18T16:39:51.256Z,22.40
2019-05-18T16:42:35.172Z,22.40
2019-05-18T16:45:19.754Z,22.40
2019-05-18T16:48:04.377Z,22.40
2019-05-18T16:50:48.969Z,22.40
2019-05-18T16:53:32.921Z,22.40
2019-05-18T16:56:16.610Z,22.40
2019-05-18T16:59:01.038Z,22.50
2019-05-18T17:04:48.538Z,22.40
2019-05-18T17:07:20.963Z,22.40
2019-05-18T17:10:05.722Z,22.40
2019-05-18T17:12:50.404Z,22.40
2019-05-18T17:15:34.498Z,22.40
2019-05-18T17:18:18.319Z,22.40
2019-05-18T17:21:03.000Z,22.40
2019-05-18T17:23:47.994Z,22.40
2019-05-18T17:26:32.782Z,22.50
2019-05-18T17:29:18.303Z,22.40
2019-05-18T17:32:02.691Z,22.30
2019-05-18T17:34:47.040Z,22.20
2019-05-18T17:37:31.547Z,22.10
2019-05-18T17:40:16.039Z,22.00
2019-05-18T17:43:00.845Z,21.90
2019-05-18T17:45:44.836Z,21.80
2019-05-18T17:48:30.510Z,21.80
2019-05-18T17:51:14.767Z,21.80
2019-05-18T17:53:59.405Z,21.80
2019-05-18T17:56:44.780Z,21.70
2019-05-18T17:59:29.564Z,21.70
2019-05-18T18:02:15.008Z,21.60
2019-05-18T18:04:59.497Z,21.60
2019-05-18T18:07:43.012Z,21.50
2019-05-18T18:10:27.035Z,21.40
2019-05-18T18:13:11.736Z,21.30
2019-05-18T18:15:58.363Z,21.20
2019-05-18T18:18:46.803Z,21.20
2019-05-18T18:21:31.520Z,21.20
2019-05-18T18:24:15.512Z,21.20
2019-05-18T18:26:59.842Z,21.20
2019-05-18T18:29:43.762Z,21.20
2019-05-18T18:32:28.365Z,21.10
2019-05-18T18:35:13.108Z,21.00
2019-05-18T18:37:57.601Z,20.90
2019-05-18T18:40:42.660Z,20.90
2019-05-18T18:43:27.753Z,20.80
2019-05-18T18:46:11.793Z,20.70
2019-05-18T18:48:56.730Z,20.60
2019-05-18T18:51:40.490Z,20.50
2019-05-18T18:54:24.517Z,20.50
2019-05-18T18:57:08.290Z,20.40
2019-05-18T18:59:52.131Z,20.30
2019-05-18T19:02:36.367Z,20.30
2019-05-18T19:05:20.986Z,20.30
2019-05-18T19:08:04.784Z,20.20
2019-05-18T19:10:49.006Z,20.10
2019-05-18T19:13:21.644Z,20.00
2019-05-18T19:16:07.730Z,20.00
2019-05-18T19:18:52.245Z,19.90
2019-05-18T19:21:36.426Z,19.80
2019-05-18T19:24:20.863Z,19.80
2019-05-18T19:27:06.306Z,19.70
2019-05-18T19:29:53.248Z,19.70
2019-05-18T19:32:38.793Z,19.70
2019-05-18T19:35:28.202Z,19.70
2019-05-18T19:38:24.439Z,19.60
2019-05-18T19:41:08.356Z,19.60
2019-05-18T19:43:52.777Z,19.60
2019-05-18T19:46:38.222Z,19.50
2019-05-18T19:49:23.035Z,19.40
2019-05-18T19:52:06.818Z,19.40
2019-05-18T19:54:51.131Z,19.40
2019-05-18T19:57:36.183Z,19.30
2019-05-18T20:00:20.987Z,19.30
2019-05-18T20:02:53.981Z,19.20
2019-05-18T20:05:37.594Z,19.20
2019-05-18T20:08:21.254Z,19.10
2019-05-18T20:10:54.143Z,19.00
2019-05-18T20:13:38.520Z,19.00
2019-05-18T20:16:22.975Z,18.90
2019-05-18T20:19:06.832Z,18.80
2019-05-18T20:25:25.253Z,18.70
2019-05-18T20:28:22.857Z,18.70
2019-05-18T20:30:55.370Z,18.60
2019-05-18T20:33:28.190Z,18.60
2019-05-18T20:36:12.563Z,18.40
2019-05-18T20:38:56.642Z,18.40
2019-05-18T20:41:40.589Z,18.30
2019-05-18T20:44:24.441Z,18.20
2019-05-18T20:47:08.676Z,18.10
2019-05-18T20:49:52.304Z,18.00
2019-05-18T20:52:25.539Z,17.90
2019-05-18T20:55:09.602Z,17.90
2019-05-18T20:57:53.937Z,17.90
2019-05-18T21:03:23.284Z,17.90
2019-05-18T21:06:07.384Z,17.90
2019-05-18T21:08:51.352Z,17.90
2019-05-18T21:11:35.089Z,17.80
2019-05-18T21:14:21.287Z,17.80
2019-05-18T21:17:05.762Z,17.80
2019-05-18T21:19:50.425Z,17.80
2019-05-18T21:22:35.290Z,17.70
2019-05-18T21:25:20.415Z,17.70
2019-05-18T21:28:04.790Z,17.70
2019-05-18T21:30:52.076Z,17.60
2019-05-18T21:33:36.134Z,17.50
2019-05-18T21:36:20.552Z,17.50
2019-05-18T21:39:05.301Z,17.50
2019-05-18T21:41:49.593Z,17.40
2019-05-18T21:44:34.524Z,17.40
2019-05-18T21:47:19.027Z,17.30
2019-05-18T21:50:03.451Z,17.30
2019-05-18T21:52:47.818Z,17.30
2019-05-18T21:55:31.892Z,17.20
2019-05-18T22:00:59.464Z,17.20
2019-05-18T22:03:47.865Z,17.10
2019-05-18T22:09:32.386Z,16.90
2019-05-18T22:12:04.705Z,16.80
2019-05-18T22:14:48.313Z,16.80
2019-05-18T22:17:35.476Z,16.80
2019-05-18T22:20:21.535Z,16.80
2019-05-18T22:23:07.829Z,16.70
2019-05-18T22:25:51.515Z,16.70
2019-05-18T22:28:36.127Z,16.70
2019-05-18T22:31:20.475Z,16.60
2019-05-18T22:34:05.143Z,16.60
2019-05-18T22:36:48.852Z,16.50
2019-05-18T22:39:33.148Z,16.50
2019-05-18T22:42:05.523Z,16.50
2019-05-18T22:44:51.777Z,16.40
2019-05-18T22:47:38.454Z,16.30
2019-05-18T22:50:23.460Z,16.30
2019-05-18T22:53:07.236Z,16.30
2019-05-18T22:55:50.934Z,16.30
2019-05-18T22:58:35.181Z,16.20
2019-05-18T23:01:19.785Z,16.20
2019-05-18T23:04:04.161Z,16.20
2019-05-18T23:06:48.198Z,16.10
2019-05-18T23:09:33.625Z,16.10
2019-05-18T23:15:01.408Z,16.00
2019-05-18T23:17:45.036Z,16.00
2019-05-18T23:20:28.772Z,15.90
2019-05-18T23:23:13.095Z,15.90
2019-05-18T23:25:56.854Z,15.90
2019-05-18T23:28:41.141Z,15.80
2019-05-18T23:31:25.932Z,15.80
2019-05-18T23:34:11.512Z,15.80
2019-05-18T23:36:55.351Z,15.70
2019-05-18T23:39:39.200Z,15.70
2019-05-18T23:42:23.522Z,15.70
2019-05-18T23:45:07.571Z,15.60
2019-05-18T23:47:52.367Z,15.60
2019-05-18T23:50:36.506Z,15.50
2019-05-18T23:53:21.703Z,15.40
2019-05-18T23:56:06.036Z,15.30
2019-05-18T23:58:49.679Z,15.40
